sensor_id;sensor_type;location;lat;lon;timestamp;pressure;altitude;pressure_sealevel;temperature;humidity
40794;BME280;26502;51.886;15.604;2022-08-11T00:02:48;101620.06;;;17.62;47.20
40794;BME280;26502;51.886;15.604;2022-08-11T00:07:57;101613.20;;;17.58;47.41
40794;BME280;26502;51.886;15.604;2022-08-11T00:13:06;101612.48;;;17.55;47.59
40794;BME280;26502;51.886;15.604;2022-08-11T00:18:14;101614.35;;;17.50;47.67
40794;BME280;26502;51.886;15.604;2022-08-11T00:23:21;101618.26;;;17.39;47.81
40794;BME280;26502;51.886;15.604;2022-08-11T00:28:32;101618.45;;;17.27;48.03
40794;BME280;26502;51.886;15.604;2022-08-11T00:33:41;101619.83;;;17.20;48.12
40794;BME280;26502;51.886;15.604;2022-08-11T00:38:52;101620.52;;;17.12;48.22
40794;BME280;26502;51.886;15.604;2022-08-11T00:44:20;101625.67;;;17.06;48.42
40794;BME280;26502;51.886;15.604;2022-08-11T00:49:41;101624.32;;;17.00;48.79
40794;BME280;26502;51.886;15.604;2022-08-11T01:01:08;101622.89;;;16.79;49.19
40794;BME280;26502;51.886;15.604;2022-08-11T01:12:26;101622.13;;;16.63;49.39
40794;BME280;26502;51.886;15.604;2022-08-11T01:35:33;101625.25;;;15.96;50.69
40794;BME280;26502;51.886;15.604;2022-08-11T01:41:17;101623.14;;;15.81;50.89
40794;BME280;26502;51.886;15.604;2022-08-11T01:46:31;101622.21;;;15.82;51.21
40794;BME280;26502;51.886;15.604;2022-08-11T01:51:53;101626.95;;;15.74;51.26
40794;BME280;26502;51.886;15.604;2022-08-11T01:57:25;101627.35;;;15.73;51.44
40794;BME280;26502;51.886;15.604;2022-08-11T02:02:46;101625.16;;;15.60;51.61
40794;BME280;26502;51.886;15.604;2022-08-11T02:08:07;101621.84;;;15.53;51.78
40794;BME280;26502;51.886;15.604;2022-08-11T02:13:29;101623.74;;;15.51;51.98
40794;BME280;26502;51.886;15.604;2022-08-11T02:18:45;101622.55;;;15.49;52.03
40794;BME280;26502;51.886;15.604;2022-08-11T02:24:19;101619.35;;;15.43;52.14
40794;BME280;26502;51.886;15.604;2022-08-11T02:29:37;101618.12;;;15.34;52.22
40794;BME280;26502;51.886;15.604;2022-08-11T02:34:58;101620.77;;;15.30;52.32
40794;BME280;26502;51.886;15.604;2022-08-11T02:40:17;101624.70;;;15.20;52.35
40794;BME280;26502;51.886;15.604;2022-08-11T02:45:47;101627.42;;;15.09;52.69
40794;BME280;26502;51.886;15.604;2022-08-11T02:51:13;101627.34;;;15.01;52.82
40794;BME280;26502;51.886;15.604;2022-08-11T02:56:36;101626.46;;;14.96;52.98
40794;BME280;26502;51.886;15.604;2022-08-11T03:01:54;101626.17;;;14.89;53.11
40794;BME280;26502;51.886;15.604;2022-08-11T03:07:13;101627.31;;;14.77;53.25
40794;BME280;26502;51.886;15.604;2022-08-11T03:12:32;101622.63;;;14.67;53.39
40794;BME280;26502;51.886;15.604;2022-08-11T03:18:03;101623.19;;;14.28;53.39
40794;BME280;26502;51.886;15.604;2022-08-11T03:23:28;101618.65;;;13.97;53.95
40794;BME280;26502;51.886;15.604;2022-08-11T03:28:40;101625.63;;;13.97;54.33
40794;BME280;26502;51.886;15.604;2022-08-11T03:33:51;101627.35;;;14.04;54.61
40794;BME280;26502;51.886;15.604;2022-08-11T03:39:19;101630.08;;;14.14;54.66
40794;BME280;26502;51.886;15.604;2022-08-11T03:44:46;101628.29;;;14.20;54.67
40794;BME280;26502;51.886;15.604;2022-08-11T03:50:03;101628.50;;;14.24;54.70
40794;BME280;26502;51.886;15.604;2022-08-11T03:55:18;101630.64;;;14.19;54.70
40794;BME280;26502;51.886;15.604;2022-08-11T04:00:43;101629.05;;;14.08;54.87
40794;BME280;26502;51.886;15.604;2022-08-11T04:06:25;101630.55;;;13.99;55.06
40794;BME280;26502;51.886;15.604;2022-08-11T04:18:13;101636.77;;;13.71;55.55
40794;BME280;26502;51.886;15.604;2022-08-11T04:24:01;101636.38;;;13.61;55.87
40794;BME280;26502;51.886;15.604;2022-08-11T04:29:33;101638.80;;;13.63;56.04
40794;BME280;26502;51.886;15.604;2022-08-11T04:34:54;101639.69;;;13.69;56.10
40794;BME280;26502;51.886;15.604;2022-08-11T04:46:24;101643.64;;;13.92;56.55
40794;BME280;26502;51.886;15.604;2022-08-11T04:51:58;101639.64;;;14.05;56.78
40794;BME280;26502;51.886;15.604;2022-08-11T04:57:34;101641.78;;;14.17;56.97
40794;BME280;26502;51.886;15.604;2022-08-11T05:03:28;101638.93;;;14.28;57.20
40794;BME280;26502;51.886;15.604;2022-08-11T05:09:10;101639.46;;;14.44;57.34
40794;BME280;26502;51.886;15.604;2022-08-11T05:14:29;101640.14;;;14.62;57.29
40794;BME280;26502;51.886;15.604;2022-08-11T05:19:55;101642.12;;;14.83;57.30
40794;BME280;26502;51.886;15.604;2022-08-11T05:25:22;101645.13;;;15.04;57.38
40794;BME280;26502;51.886;15.604;2022-08-11T05:30:49;101642.35;;;15.41;57.35
40794;BME280;26502;51.886;15.604;2022-08-11T05:36:22;101645.75;;;15.84;57.35
40794;BME280;26502;51.886;15.604;2022-08-11T05:41:34;101645.81;;;16.23;57.19
40794;BME280;26502;51.886;15.604;2022-08-11T05:46:59;101647.97;;;16.63;57.16
40794;BME280;26502;51.886;15.604;2022-08-11T05:52:25;101652.89;;;17.03;57.09
40794;BME280;26502;51.886;15.604;2022-08-11T05:57:53;101653.02;;;17.36;56.73
40794;BME280;26502;51.886;15.604;2022-08-11T06:03:02;101664.70;;;17.76;56.48
40794;BME280;26502;51.886;15.604;2022-08-11T06:08:12;101667.17;;;18.18;56.18
40794;BME280;26502;51.886;15.604;2022-08-11T06:13:18;101668.32;;;18.57;55.72
40794;BME280;26502;51.886;15.604;2022-08-11T06:18:29;101672.02;;;19.01;54.89
40794;BME280;26502;51.886;15.604;2022-08-11T06:23:36;101670.45;;;19.48;54.14
40794;BME280;26502;51.886;15.604;2022-08-11T06:28:49;101668.63;;;19.82;52.80
40794;BME280;26502;51.886;15.604;2022-08-11T06:34:02;101672.65;;;20.14;52.26
40794;BME280;26502;51.886;15.604;2022-08-11T06:39:22;101672.30;;;20.57;51.72
40794;BME280;26502;51.886;15.604;2022-08-11T06:44:41;101667.51;;;20.87;50.76
40794;BME280;26502;51.886;15.604;2022-08-11T06:49:49;101669.64;;;21.20;50.22
40794;BME280;26502;51.886;15.604;2022-08-11T06:55:24;101663.89;;;21.58;49.49
40794;BME280;26502;51.886;15.604;2022-08-11T07:00:48;101663.25;;;21.94;48.44
40794;BME280;26502;51.886;15.604;2022-08-11T07:06:07;101656.84;;;22.28;47.97
40794;BME280;26502;51.886;15.604;2022-08-11T07:17:26;101645.12;;;22.84;45.95
40794;BME280;26502;51.886;15.604;2022-08-11T07:22:36;101640.77;;;22.87;45.21
40794;BME280;26502;51.886;15.604;2022-08-11T07:28:03;101638.98;;;23.18;44.58
40794;BME280;26502;51.886;15.604;2022-08-11T07:33:45;101633.08;;;23.63;43.90
40794;BME280;26502;51.886;15.604;2022-08-11T07:38:55;101627.23;;;23.81;43.23
40794;BME280;26502;51.886;15.604;2022-08-11T07:44:04;101626.19;;;23.93;42.62
40794;BME280;26502;51.886;15.604;2022-08-11T07:49:14;101624.14;;;24.13;41.56
40794;BME280;26502;51.886;15.604;2022-08-11T07:54:39;101620.14;;;23.92;41.21
40794;BME280;26502;51.886;15.604;2022-08-11T07:59:48;101618.24;;;24.32;41.12
40794;BME280;26502;51.886;15.604;2022-08-11T08:05:21;101615.84;;;24.27;39.60
40794;BME280;26502;51.886;15.604;2022-08-11T08:10:46;101621.25;;;24.25;39.22
40794;BME280;26502;51.886;15.604;2022-08-11T08:16:12;101619.89;;;24.84;38.67
40794;BME280;26502;51.886;15.604;2022-08-11T08:21:38;101616.63;;;25.09;38.20
40794;BME280;26502;51.886;15.604;2022-08-11T08:26:49;101608.46;;;25.33;37.72
40794;BME280;26502;51.886;15.604;2022-08-11T08:32:06;101598.27;;;25.28;36.98
40794;BME280;26502;51.886;15.604;2022-08-11T08:37:19;101600.25;;;25.51;36.74
40794;BME280;26502;51.886;15.604;2022-08-11T08:42:31;101595.45;;;25.50;36.00
40794;BME280;26502;51.886;15.604;2022-08-11T08:47:44;101591.33;;;25.82;35.75
40794;BME280;26502;51.886;15.604;2022-08-11T08:52:55;101592.37;;;26.12;35.45
40794;BME280;26502;51.886;15.604;2022-08-11T08:58:06;101590.94;;;26.27;34.84
40794;BME280;26502;51.886;15.604;2022-08-11T09:03:11;101594.34;;;26.25;34.37
40794;BME280;26502;51.886;15.604;2022-08-11T09:08:20;101589.66;;;26.33;33.82
40794;BME280;26502;51.886;15.604;2022-08-11T09:13:28;101593.34;;;26.37;33.45
40794;BME280;26502;51.886;15.604;2022-08-11T09:18:37;101588.17;;;26.38;33.04
40794;BME280;26502;51.886;15.604;2022-08-11T09:23:47;101585.52;;;26.43;33.22
40794;BME280;26502;51.886;15.604;2022-08-11T09:29:14;101587.73;;;26.69;32.91
40794;BME280;26502;51.886;15.604;2022-08-11T09:34:22;101580.80;;;26.84;32.32
40794;BME280;26502;51.886;15.604;2022-08-11T09:39:31;101573.59;;;27.25;32.40
40794;BME280;26502;51.886;15.604;2022-08-11T09:44:59;101567.56;;;27.41;31.66
40794;BME280;26502;51.886;15.604;2022-08-11T09:50:05;101568.73;;;27.40;31.37
40794;BME280;26502;51.886;15.604;2022-08-11T09:55:16;101560.82;;;27.79;31.15
40794;BME280;26502;51.886;15.604;2022-08-11T10:00:29;101550.92;;;27.90;30.34
40794;BME280;26502;51.886;15.604;2022-08-11T10:05:38;101546.33;;;28.06;30.36
40794;BME280;26502;51.886;15.604;2022-08-11T10:11:03;101546.02;;;28.23;30.05
40794;BME280;26502;51.886;15.604;2022-08-11T10:16:11;101541.75;;;28.41;29.84
40794;BME280;26502;51.886;15.604;2022-08-11T10:21:25;101541.98;;;28.76;29.32
40794;BME280;26502;51.886;15.604;2022-08-11T10:26:34;101532.73;;;28.98;28.90
40794;BME280;26502;51.886;15.604;2022-08-11T10:32:00;101521.51;;;29.12;28.34
40794;BME280;26502;51.886;15.604;2022-08-11T10:37:25;101513.57;;;29.05;28.21
40794;BME280;26502;51.886;15.604;2022-08-11T10:42:39;101517.90;;;28.73;28.21
40794;BME280;26502;51.886;15.604;2022-08-11T10:48:05;101519.20;;;28.60;27.99
40794;BME280;26502;51.886;15.604;2022-08-11T11:04:12;101494.73;;;28.99;28.23
40794;BME280;26502;51.886;15.604;2022-08-11T11:09:23;101496.33;;;28.96;27.69
40794;BME280;26502;51.886;15.604;2022-08-11T11:14:35;101482.56;;;29.21;27.22
40794;BME280;26502;51.886;15.604;2022-08-11T11:20:03;101482.80;;;28.94;27.09
40794;BME280;26502;51.886;15.604;2022-08-11T11:25:22;101481.23;;;29.40;27.47
40794;BME280;26502;51.886;15.604;2022-08-11T11:30:36;101483.92;;;29.99;26.80
40794;BME280;26502;51.886;15.604;2022-08-11T11:35:55;101472.64;;;29.56;26.47
40794;BME280;26502;51.886;15.604;2022-08-11T11:41:08;101472.49;;;29.21;26.40
40794;BME280;26502;51.886;15.604;2022-08-11T11:46:32;101469.70;;;28.92;26.32
40794;BME280;26502;51.886;15.604;2022-08-11T11:51:37;101467.67;;;29.37;25.61
40794;BME280;26502;51.886;15.604;2022-08-11T11:56:44;101461.33;;;29.89;25.56
40794;BME280;26502;51.886;15.604;2022-08-11T12:01:53;101454.55;;;30.33;25.38
40794;BME280;26502;51.886;15.604;2022-08-11T12:07:01;101448.02;;;30.43;24.76
40794;BME280;26502;51.886;15.604;2022-08-11T12:12:22;101434.04;;;30.84;24.85
40794;BME280;26502;51.886;15.604;2022-08-11T12:17:48;101428.34;;;31.10;23.66
40794;BME280;26502;51.886;15.604;2022-08-11T12:22:56;101431.20;;;31.19;23.71
40794;BME280;26502;51.886;15.604;2022-08-11T12:28:21;101432.48;;;30.95;23.47
40794;BME280;26502;51.886;15.604;2022-08-11T12:33:29;101423.45;;;31.28;23.45
40794;BME280;26502;51.886;15.604;2022-08-11T12:38:37;101420.48;;;31.13;22.74
40794;BME280;26502;51.886;15.604;2022-08-11T12:43:46;101415.05;;;30.83;22.95
40794;BME280;26502;51.886;15.604;2022-08-11T12:49:13;101403.04;;;30.79;23.25
40794;BME280;26502;51.886;15.604;2022-08-11T12:54:44;101390.71;;;30.72;23.19
40794;BME280;26502;51.886;15.604;2022-08-11T12:59:56;101393.52;;;30.72;23.08
40794;BME280;26502;51.886;15.604;2022-08-11T13:05:25;101391.15;;;30.32;23.30
40794;BME280;26502;51.886;15.604;2022-08-11T13:10:33;101390.94;;;30.42;23.46
40794;BME280;26502;51.886;15.604;2022-08-11T13:15:58;101383.55;;;30.45;23.41
40794;BME280;26502;51.886;15.604;2022-08-11T13:21:06;101375.75;;;30.87;23.10
40794;BME280;26502;51.886;15.604;2022-08-11T13:26:14;101366.46;;;31.37;23.16
40794;BME280;26502;51.886;15.604;2022-08-11T13:31:22;101364.33;;;31.93;22.88
40794;BME280;26502;51.886;15.604;2022-08-11T13:36:29;101360.75;;;31.24;22.45
40794;BME280;26502;51.886;15.604;2022-08-11T13:41:38;101352.00;;;30.91;22.60
40794;BME280;26502;51.886;15.604;2022-08-11T13:46:46;101347.45;;;31.40;22.47
40794;BME280;26502;51.886;15.604;2022-08-11T13:51:56;101338.53;;;31.52;22.22
40794;BME280;26502;51.886;15.604;2022-08-11T13:57:06;101328.61;;;31.63;21.94
40794;BME280;26502;51.886;15.604;2022-08-11T14:02:17;101324.68;;;32.17;21.88
40794;BME280;26502;51.886;15.604;2022-08-11T14:07:33;101322.23;;;32.63;21.56
40794;BME280;26502;51.886;15.604;2022-08-11T14:12:49;101318.48;;;32.83;21.38
40794;BME280;26502;51.886;15.604;2022-08-11T14:18:18;101316.07;;;33.20;20.84
40794;BME280;26502;51.886;15.604;2022-08-11T14:23:28;101315.56;;;32.64;20.73
40794;BME280;26502;51.886;15.604;2022-08-11T14:28:37;101314.52;;;31.82;21.07
40794;BME280;26502;51.886;15.604;2022-08-11T14:33:46;101305.83;;;31.89;21.17
40794;BME280;26502;51.886;15.604;2022-08-11T14:38:54;101305.58;;;32.07;21.06
40794;BME280;26502;51.886;15.604;2022-08-11T14:44:02;101300.02;;;32.60;20.79
40794;BME280;26502;51.886;15.604;2022-08-11T14:49:28;101298.38;;;32.98;20.78
40794;BME280;26502;51.886;15.604;2022-08-11T14:54:36;101294.61;;;33.21;20.63
40794;BME280;26502;51.886;15.604;2022-08-11T15:00:03;101296.23;;;33.21;20.37
40794;BME280;26502;51.886;15.604;2022-08-11T15:05:11;101292.37;;;33.01;20.29
40794;BME280;26502;51.886;15.604;2022-08-11T15:10:19;101294.36;;;32.88;20.30
40794;BME280;26502;51.886;15.604;2022-08-11T15:15:28;101289.67;;;32.34;20.54
40794;BME280;26502;51.886;15.604;2022-08-11T15:20:54;101286.65;;;32.36;20.35
40794;BME280;26502;51.886;15.604;2022-08-11T15:26:22;101277.00;;;31.56;20.59
40794;BME280;26502;51.886;15.604;2022-08-11T15:31:52;101267.14;;;32.09;20.84
40794;BME280;26502;51.886;15.604;2022-08-11T15:37:19;101264.07;;;32.55;20.63
40794;BME280;26502;51.886;15.604;2022-08-11T15:42:46;101269.21;;;32.91;20.57
40794;BME280;26502;51.886;15.604;2022-08-11T15:48:15;101269.16;;;33.02;20.42
40794;BME280;26502;51.886;15.604;2022-08-11T15:53:28;101268.48;;;32.77;20.43
40794;BME280;26502;51.886;15.604;2022-08-11T15:58:39;101268.20;;;31.95;20.33
40794;BME280;26502;51.886;15.604;2022-08-11T16:04:08;101264.65;;;31.38;20.74
40794;BME280;26502;51.886;15.604;2022-08-11T16:09:23;101252.92;;;30.82;20.97
40794;BME280;26502;51.886;15.604;2022-08-11T16:14:36;101252.98;;;30.68;21.38
40794;BME280;26502;51.886;15.604;2022-08-11T16:20:01;101251.79;;;31.26;21.38
40794;BME280;26502;51.886;15.604;2022-08-11T16:25:13;101248.29;;;31.53;21.19
40794;BME280;26502;51.886;15.604;2022-08-11T16:30:20;101245.01;;;31.58;21.24
40794;BME280;26502;51.886;15.604;2022-08-11T16:35:30;101246.55;;;31.39;21.30
40794;BME280;26502;51.886;15.604;2022-08-11T16:40:57;101251.00;;;30.99;21.35
40794;BME280;26502;51.886;15.604;2022-08-11T16:46:07;101250.20;;;30.51;21.50
40794;BME280;26502;51.886;15.604;2022-08-11T16:51:37;101255.92;;;30.18;21.76
40794;BME280;26502;51.886;15.604;2022-08-11T16:56:48;101258.56;;;29.91;22.06
40794;BME280;26502;51.886;15.604;2022-08-11T17:01:58;101261.92;;;29.57;21.97
40794;BME280;26502;51.886;15.604;2022-08-11T17:07:08;101260.66;;;29.34;22.56
40794;BME280;26502;51.886;15.604;2022-08-11T17:12:39;101259.38;;;29.16;22.73
40794;BME280;26502;51.886;15.604;2022-08-11T17:18:06;101265.73;;;28.86;22.85
40794;BME280;26502;51.886;15.604;2022-08-11T17:23:16;101268.20;;;28.78;23.26
40794;BME280;26502;51.886;15.604;2022-08-11T17:28:41;101270.90;;;28.63;23.62
40794;BME280;26502;51.886;15.604;2022-08-11T17:33:50;101268.39;;;28.59;24.02
40794;BME280;26502;51.886;15.604;2022-08-11T17:39:17;101267.90;;;28.45;24.41
40794;BME280;26502;51.886;15.604;2022-08-11T17:44:26;101269.67;;;28.20;24.32
40794;BME280;26502;51.886;15.604;2022-08-11T17:49:52;101269.63;;;27.98;24.63
40794;BME280;26502;51.886;15.604;2022-08-11T17:54:59;101265.88;;;27.76;24.92
40794;BME280;26502;51.886;15.604;2022-08-11T18:00:24;101259.59;;;27.61;25.47
40794;BME280;26502;51.886;15.604;2022-08-11T18:05:35;101263.20;;;27.45;25.89
40794;BME280;26502;51.886;15.604;2022-08-11T18:10:43;101263.73;;;27.35;26.17
40794;BME280;26502;51.886;15.604;2022-08-11T18:16:10;101266.27;;;27.19;26.53
40794;BME280;26502;51.886;15.604;2022-08-11T18:21:35;101267.42;;;27.05;26.75
40794;BME280;26502;51.886;15.604;2022-08-11T18:27:03;101269.34;;;26.92;27.30
40794;BME280;26502;51.886;15.604;2022-08-11T18:32:30;101277.32;;;26.67;27.39
40794;BME280;26502;51.886;15.604;2022-08-11T18:37:57;101277.31;;;26.50;27.80
40794;BME280;26502;51.886;15.604;2022-08-11T18:43:26;101280.41;;;26.30;28.19
40794;BME280;26502;51.886;15.604;2022-08-11T18:48:54;101285.97;;;26.06;28.38
40794;BME280;26502;51.886;15.604;2022-08-11T18:54:21;101289.74;;;25.86;28.61
40794;BME280;26502;51.886;15.604;2022-08-11T18:59:48;101285.83;;;25.55;29.00
40794;BME280;26502;51.886;15.604;2022-08-11T19:05:14;101291.23;;;25.28;29.32
40794;BME280;26502;51.886;15.604;2022-08-11T19:10:39;101296.98;;;25.14;29.68
40794;BME280;26502;51.886;15.604;2022-08-11T19:16:05;101300.08;;;24.96;30.04
40794;BME280;26502;51.886;15.604;2022-08-11T19:21:31;101300.34;;;24.75;30.16
40794;BME280;26502;51.886;15.604;2022-08-11T19:26:58;101300.49;;;24.55;30.54
40794;BME280;26502;51.886;15.604;2022-08-11T19:32:26;101304.73;;;24.37;30.85
40794;BME280;26502;51.886;15.604;2022-08-11T19:37:52;101302.44;;;24.18;31.02
40794;BME280;26502;51.886;15.604;2022-08-11T19:43:18;101304.05;;;23.93;31.33
40794;BME280;26502;51.886;15.604;2022-08-11T19:48:44;101307.21;;;23.71;31.52
40794;BME280;26502;51.886;15.604;2022-08-11T19:54:10;101312.16;;;23.44;31.80
40794;BME280;26502;51.886;15.604;2022-08-11T19:59:37;101312.30;;;23.35;32.20
40794;BME280;26502;51.886;15.604;2022-08-11T20:05:03;101315.83;;;23.22;32.24
40794;BME280;26502;51.886;15.604;2022-08-11T20:10:29;101319.17;;;23.08;32.67
40794;BME280;26502;51.886;15.604;2022-08-11T20:15:57;101331.39;;;22.88;32.93
40794;BME280;26502;51.886;15.604;2022-08-11T20:21:25;101335.11;;;22.67;33.25
40794;BME280;26502;51.886;15.604;2022-08-11T20:26:51;101339.15;;;22.46;33.62
40794;BME280;26502;51.886;15.604;2022-08-11T20:32:20;101342.33;;;22.27;33.93
40794;BME280;26502;51.886;15.604;2022-08-11T20:37:46;101341.20;;;22.12;34.28
40794;BME280;26502;51.886;15.604;2022-08-11T20:43:14;101342.57;;;21.89;34.39
40794;BME280;26502;51.886;15.604;2022-08-11T20:48:40;101346.43;;;21.70;34.95
40794;BME280;26502;51.886;15.604;2022-08-11T20:54:06;101349.73;;;21.53;35.17
40794;BME280;26502;51.886;15.604;2022-08-11T20:59:31;101356.25;;;21.34;35.36
40794;BME280;26502;51.886;15.604;2022-08-11T21:04:57;101362.29;;;21.00;35.75
40794;BME280;26502;51.886;15.604;2022-08-11T21:10:22;101367.02;;;20.77;36.23
40794;BME280;26502;51.886;15.604;2022-08-11T21:15:47;101370.46;;;20.62;36.61
40794;BME280;26502;51.886;15.604;2022-08-11T21:21:14;101372.78;;;20.46;36.81
40794;BME280;26502;51.886;15.604;2022-08-11T21:26:42;101375.00;;;20.30;37.03
40794;BME280;26502;51.886;15.604;2022-08-11T21:32:08;101375.01;;;20.12;37.45
40794;BME280;26502;51.886;15.604;2022-08-11T21:37:33;101377.83;;;20.02;37.67
40794;BME280;26502;51.886;15.604;2022-08-11T21:43:00;101378.58;;;19.87;38.00
40794;BME280;26502;51.886;15.604;2022-08-11T21:48:25;101388.08;;;19.72;38.29
40794;BME280;26502;51.886;15.604;2022-08-11T21:53:53;101390.77;;;19.59;38.52
40794;BME280;26502;51.886;15.604;2022-08-11T21:59:22;101385.69;;;19.45;38.94
40794;BME280;26502;51.886;15.604;2022-08-11T22:04:51;101382.23;;;19.36;39.27
40794;BME280;26502;51.886;15.604;2022-08-11T22:10:17;101387.25;;;19.40;39.43
40794;BME280;26502;51.886;15.604;2022-08-11T22:15:42;101388.86;;;19.36;39.57
40794;BME280;26502;51.886;15.604;2022-08-11T22:21:07;101386.04;;;19.35;39.60
40794;BME280;26502;51.886;15.604;2022-08-11T22:26:35;101384.27;;;19.29;39.74
40794;BME280;26502;51.886;15.604;2022-08-11T22:31:59;101386.79;;;19.23;39.74
40794;BME280;26502;51.886;15.604;2022-08-11T22:37:26;101384.34;;;19.15;39.90
40794;BME280;26502;51.886;15.604;2022-08-11T22:42:50;101381.33;;;19.08;40.02
40794;BME280;26502;51.886;15.604;2022-08-11T22:48:15;101378.89;;;18.97;40.19
40794;BME280;26502;51.886;15.604;2022-08-11T22:53:41;101378.18;;;18.87;40.45
40794;BME280;26502;51.886;15.604;2022-08-11T22:59:06;101380.05;;;18.76;40.76
40794;BME280;26502;51.886;15.604;2022-08-11T23:04:31;101377.08;;;18.67;40.79
40794;BME280;26502;51.886;15.604;2022-08-11T23:09:57;101374.13;;;18.59;40.96
40794;BME280;26502;51.886;15.604;2022-08-11T23:15:23;101372.86;;;18.53;41.12
40794;BME280;26502;51.886;15.604;2022-08-11T23:20:49;101372.95;;;18.41;41.26
40794;BME280;26502;51.886;15.604;2022-08-11T23:26:15;101374.02;;;18.30;41.47
40794;BME280;26502;51.886;15.604;2022-08-11T23:31:44;101377.46;;;18.20;41.70
40794;BME280;26502;51.886;15.604;2022-08-11T23:37:13;101373.69;;;18.03;42.01
40794;BME280;26502;51.886;15.604;2022-08-11T23:42:42;101374.63;;;17.92;42.42
40794;BME280;26502;51.886;15.604;2022-08-11T23:48:10;101381.33;;;17.84;42.49
40794;BME280;26502;51.886;15.604;2022-08-11T23:53:39;101379.17;;;17.73;42.71
40794;BME280;26502;51.886;15.604;2022-08-11T23:59:06;101379.67;;;17.60;42.89
